Time;durP1;ratioP1;P1;durP2;ratioP2;P2;SDS_P1;SDS_P2;PMS_P1;PMS_P2;Temp;Humidity;BMP_temperature;BMP_pressure;BME280_temperature;BME280_humidity;BME280_pressure;Samples;Min_cycle;Max_cycle;Signal;HPM_P1;HPM_P2
2021/09/11 00:01:50;;;;;;;4.53;2.80;;;;;;;;;;5111360;27;20504;-69
2021/09/11 00:04:17;;;;;;;5.32;2.65;;;;;;;;;;5111331;28;20027;-69
2021/09/11 00:06:43;;;;;;;5.18;2.80;;;;;;;;;;5111238;28;20468;-69
2021/09/11 00:09:46;;;;;;;4.60;2.70;;;;;;;;;;5111162;27;20120;-70
2021/09/11 00:12:12;;;;;;;3.85;1.85;;;;;;;;;;5111270;28;20036;-70
2021/09/11 00:14:39;;;;;;;5.10;2.70;;;;;;;;;;5111172;28;20434;-67
2021/09/11 00:18:06;;;;;;;3.65;2.22;;;;;;;;;;5111183;27;20461;-69
2021/09/11 00:20:33;;;;;;;5.80;2.67;;;;;;;;;;5127078;28;20031;-69
2021/09/11 00:25:31;;;;;;;5.72;2.88;;;;;;;;;;5111861;27;20397;-68
2021/09/11 00:27:57;;;;;;;4.70;2.80;;;;;;;;;;5109916;28;20115;-68
2021/09/11 00:32:18;;;;;;;6.22;2.85;;;;;;;;;;5111598;27;20400;-71
2021/09/11 00:34:44;;;;;;;4.95;2.85;;;;;;;;;;5109998;28;20028;-69
2021/09/11 00:37:10;;;;;;;5.30;3.00;;;;;;;;;;5109500;28;20027;-69
2021/09/11 00:39:36;;;;;;;4.82;2.72;;;;;;;;;;5109895;28;20071;-68
2021/09/11 00:45:20;;;;;;;4.90;2.88;;;;;;;;;;5111185;27;20404;-66
2021/09/11 00:48:42;;;;;;;4.88;2.65;;;;;;;;;;5111924;27;20401;-68
2021/09/11 00:54:37;;;;;;;6.78;3.10;;;;;;;;;;5112086;27;20501;-67
2021/09/11 00:57:03;;;;;;;4.75;2.75;;;;;;;;;;5111195;28;20530;-69
2021/09/11 00:59:30;;;;;;;6.55;3.33;;;;;;;;;;5110907;28;20356;-67
2021/09/11 01:01:56;;;;;;;5.30;2.75;;;;;;;;;;5109847;28;20057;-67
2021/09/11 01:06:26;;;;;;;7.60;3.38;;;;;;;;;;5110894;27;20405;-67
2021/09/11 01:16:52;;;;;;;4.60;3.10;;;;;;;;;;5111832;27;20381;-68
2021/09/11 01:19:18;;;;;;;5.50;3.05;;;;;;;;;;5109618;28;20028;-67
2021/09/11 01:23:31;;;;;;;4.90;3.35;;;;;;;;;;5111590;27;20389;-67
2021/09/11 01:26:54;;;;;;;5.82;3.78;;;;;;;;;;5111142;27;20401;-67
2021/09/11 01:29:20;;;;;;;6.20;3.17;;;;;;;;;;5111252;28;20031;-67
2021/09/11 01:31:46;;;;;;;5.93;3.45;;;;;;;;;;5111166;28;20024;-67
2021/09/11 01:34:12;;;;;;;6.15;3.80;;;;;;;;;;5109458;28;20016;-67
2021/09/11 01:36:39;;;;;;;6.00;3.38;;;;;;;;;;5111015;28;20391;-67
2021/09/11 01:39:05;;;;;;;6.68;3.47;;;;;;;;;;5111038;28;20043;-67
2021/09/11 01:42:08;;;;;;;7.68;3.67;;;;;;;;;;5110880;27;20388;-67
2021/09/11 01:44:35;;;;;;;6.97;4.07;;;;;;;;;;5110003;28;20028;-67
2021/09/11 01:47:47;;;;;;;5.30;3.35;;;;;;;;;;5111146;27;20516;-69
2021/09/11 01:50:52;;;;;;;5.15;2.92;;;;;;;;;;5111510;27;20761;-69
2021/09/11 01:54:50;;;;;;;5.40;3.17;;;;;;;;;;5070826;27;20418;-67
2021/09/11 02:01:41;;;;;;;8.05;4.22;;;;;;;;;;5111434;27;21028;-68
2021/09/11 02:07:18;;;;;;;8.57;4.15;;;;;;;;;;5111985;27;20512;-68
2021/09/11 02:09:45;;;;;;;7.63;3.97;;;;;;;;;;5110907;28;20020;-67
2021/09/11 02:14:18;;;;;;;5.97;3.83;;;;;;;;;;5111573;27;20878;-69
2021/09/11 02:18:16;;;;;;;14.13;4.82;;;;;;;;;;5070673;28;20405;-67
2021/09/11 02:31:00;;;;;;;5.80;3.70;;;;;;;;;;5111156;27;20500;-69
2021/09/11 02:33:26;;;;;;;7.40;4.10;;;;;;;;;;5111241;28;20077;-69
2021/09/11 02:35:52;;;;;;;7.70;4.30;;;;;;;;;;5111263;28;20028;-67
2021/09/11 02:40:39;;;;;;;8.05;3.78;;;;;;;;;;5111381;27;20730;-67
2021/09/11 02:45:13;;;;;;;7.32;3.97;;;;;;;;;;5110986;27;20512;-66
2021/09/11 02:49:16;;;;;;;7.53;4.10;;;;;;;;;;5112001;27;20401;-67
2021/09/11 02:51:42;;;;;;;7.07;4.25;;;;;;;;;;5110916;28;20442;-67
2021/09/11 02:55:23;;;;;;;7.85;4.13;;;;;;;;;;5112072;27;20393;-67
2021/09/11 02:57:49;;;;;;;7.07;3.85;;;;;;;;;;5110960;28;20511;-67
2021/09/11 03:00:16;;;;;;;7.50;3.33;;;;;;;;;;5111255;28;20388;-67
2021/09/11 03:03:03;;;;;;;6.57;4.07;;;;;;;;;;5111196;27;20377;-67
2021/09/11 03:11:02;;;;;;;5.53;3.78;;;;;;;;;;5111838;27;21044;-66
2021/09/11 03:17:22;;;;;;;8.00;4.35;;;;;;;;;;5111385;27;20885;-67
2021/09/11 03:20:36;;;;;;;5.50;3.55;;;;;;;;;;5110888;27;21024;-68
2021/09/11 03:24:55;;;;;;;6.57;3.90;;;;;;;;;;5071446;28;20396;-67
2021/09/11 03:27:21;;;;;;;7.30;4.72;;;;;;;;;;5070350;28;20021;-67
2021/09/11 03:29:47;;;;;;;8.25;4.47;;;;;;;;;;5070623;28;20095;-67
2021/09/11 03:34:12;;;;;;;9.65;4.85;;;;;;;;;;5111197;27;20388;-66
2021/09/11 03:36:39;;;;;;;7.07;3.78;;;;;;;;;;5111348;28;20034;-66
2021/09/11 03:39:05;;;;;;;6.85;3.95;;;;;;;;;;5111250;28;20043;-68
2021/09/11 03:41:31;;;;;;;8.02;3.85;;;;;;;;;;5109513;28;20384;-67
2021/09/11 03:43:57;;;;;;;6.30;3.35;;;;;;;;;;5111533;28;20031;-67
2021/09/11 03:48:36;;;;;;;7.72;4.28;;;;;;;;;;5070404;28;20395;-66
2021/09/11 03:51:02;;;;;;;6.82;4.15;;;;;;;;;;5070666;28;20055;-67
2021/09/11 03:53:29;;;;;;;6.72;3.63;;;;;;;;;;5070606;28;20017;-66
2021/09/11 03:55:55;;;;;;;12.15;4.35;;;;;;;;;;5070184;28;20104;-67
2021/09/11 03:58:21;;;;;;;12.20;4.28;;;;;;;;;;5070556;28;20036;-67
2021/09/11 04:02:15;;;;;;;7.70;4.78;;;;;;;;;;5111110;27;20892;-68
2021/09/11 04:06:20;;;;;;;7.65;3.78;;;;;;;;;;5111419;27;20393;-68
2021/09/11 04:08:47;;;;;;;7.10;4.28;;;;;;;;;;5127068;28;20032;-68
2021/09/11 04:11:13;;;;;;;8.73;4.38;;;;;;;;;;5127079;28;20164;-68
2021/09/11 04:13:39;;;;;;;9.55;4.30;;;;;;;;;;5111317;28;20376;-68
2021/09/11 04:16:05;;;;;;;8.25;4.32;;;;;;;;;;5111038;28;20020;-67
2021/09/11 04:18:31;;;;;;;10.82;5.25;;;;;;;;;;5111127;28;20365;-69
2021/09/11 04:20:58;;;;;;;8.45;4.47;;;;;;;;;;5111063;28;20023;-69
2021/09/11 04:23:24;;;;;;;6.82;4.07;;;;;;;;;;5110569;28;20098;-69
2021/09/11 04:25:50;;;;;;;8.77;4.80;;;;;;;;;;5110732;28;20067;-68
2021/09/11 04:32:14;;;;;;;7.78;4.75;;;;;;;;;;5111851;27;20415;-69
2021/09/11 04:34:41;;;;;;;15.40;8.02;;;;;;;;;;5111442;28;20047;-69
2021/09/11 04:37:07;;;;;;;20.98;11.77;;;;;;;;;;5110939;28;20024;-69
2021/09/11 04:39:33;;;;;;;28.27;15.07;;;;;;;;;;5109889;28;20115;-68
2021/09/11 04:41:59;;;;;;;22.10;10.65;;;;;;;;;;5111150;28;20099;-69
2021/09/11 04:44:28;;;;;;;15.68;6.35;;;;;;;;;;5110730;28;20502;-69
2021/09/11 04:46:54;;;;;;;10.30;6.60;;;;;;;;;;5111303;28;20039;-66
2021/09/11 04:49:21;;;;;;;8.68;4.95;;;;;;;;;;5111026;28;20016;-67
2021/09/11 04:54:27;;;;;;;8.32;4.45;;;;;;;;;;5111390;27;20900;-69
2021/09/11 04:58:47;;;;;;;9.27;5.50;;;;;;;;;;5110864;27;20509;-68
2021/09/11 05:01:13;;;;;;;9.38;6.10;;;;;;;;;;5109930;28;20081;-69
2021/09/11 05:03:58;;;;;;;11.73;6.03;;;;;;;;;;5111313;27;20408;-69
2021/09/11 05:07:10;;;;;;;11.40;6.03;;;;;;;;;;5111604;27;20389;-68
2021/09/11 05:10:19;;;;;;;8.95;5.22;;;;;;;;;;5071564;28;20379;-69
2021/09/11 05:12:45;;;;;;;8.15;5.20;;;;;;;;;;5070353;28;20021;-67
2021/09/11 05:15:12;;;;;;;8.43;4.68;;;;;;;;;;5070587;28;20035;-70
2021/09/11 05:17:38;;;;;;;11.25;5.63;;;;;;;;;;5069426;28;20362;-69
2021/09/11 05:20:21;;;;;;;8.90;5.32;;;;;;;;;;5111445;27;20753;-70
2021/09/11 05:24:57;;;;;;;9.35;5.78;;;;;;;;;;5111468;27;20519;-69
2021/09/11 05:31:48;;;;;;;8.43;4.07;;;;;;;;;;5112130;27;20477;-70
2021/09/11 05:34:14;;;;;;;6.68;4.05;;;;;;;;;;5110987;28;20035;-69
2021/09/11 05:36:40;;;;;;;7.03;3.63;;;;;;;;;;5127046;28;20107;-69
2021/09/11 05:39:07;;;;;;;5.88;3.60;;;;;;;;;;5126717;28;20069;-68
2021/09/11 05:41:33;;;;;;;8.55;5.35;;;;;;;;;;5111138;28;20464;-68
2021/09/11 05:44:00;;;;;;;10.23;5.43;;;;;;;;;;5111063;28;20020;-70
2021/09/11 05:46:26;;;;;;;10.32;5.53;;;;;;;;;;5110630;28;20329;-69
2021/09/11 05:49:38;;;;;;;14.93;7.10;;;;;;;;;;5111819;27;20389;-71
2021/09/11 05:52:04;;;;;;;11.35;6.78;;;;;;;;;;5111271;28;20027;-69
2021/09/11 05:54:30;;;;;;;9.95;5.40;;;;;;;;;;5110817;28;20024;-69
2021/09/11 05:56:56;;;;;;;7.47;4.68;;;;;;;;;;5111264;28;20031;-70
2021/09/11 05:59:23;;;;;;;7.90;4.53;;;;;;;;;;5111180;28;20452;-69
2021/09/11 06:01:49;;;;;;;8.13;4.00;;;;;;;;;;5110818;28;20020;-69
2021/09/11 06:05:11;;;;;;;11.55;4.10;;;;;;;;;;5091617;27;20510;-69
2021/09/11 06:07:40;;;;;;;7.75;4.28;;;;;;;;;;5091070;28;20028;-68
2021/09/11 06:10:45;;;;;;;9.55;3.45;;;;;;;;;;5111648;27;20394;-69
2021/09/11 06:13:11;;;;;;;8.60;4.68;;;;;;;;;;5111314;28;20031;-69
2021/09/11 06:18:33;;;;;;;8.07;4.90;;;;;;;;;;5070988;28;20457;-69
2021/09/11 06:22:18;;;;;;;9.77;4.35;;;;;;;;;;5111395;27;21032;-71
2021/09/11 06:24:44;;;;;;;8.10;3.47;;;;;;;;;;5111366;28;20050;-68
2021/09/11 06:27:13;;;;;;;7.40;4.07;;;;;;;;;;5111201;28;20042;-70
2021/09/11 06:29:39;;;;;;;8.15;4.13;;;;;;;;;;5110825;28;20502;-69
2021/09/11 06:32:05;;;;;;;8.55;4.50;;;;;;;;;;5111206;28;20073;-68
2021/09/11 06:36:40;;;;;;;5.93;3.30;;;;;;;;;;5070458;28;20423;-68
2021/09/11 06:39:06;;;;;;;8.38;3.20;;;;;;;;;;5070507;28;20027;-68
2021/09/11 06:41:32;;;;;;;7.97;3.92;;;;;;;;;;5070709;28;20032;-68
2021/09/11 06:45:10;;;;;;;10.10;4.63;;;;;;;;;;5111603;27;20505;-69
2021/09/11 06:49:25;;;;;;;8.98;3.97;;;;;;;;;;5111993;27;20388;-69
2021/09/11 06:51:51;;;;;;;10.07;4.18;;;;;;;;;;5109764;28;20035;-69
2021/09/11 06:54:17;;;;;;;10.00;4.07;;;;;;;;;;5111214;28;20028;-69
2021/09/11 06:56:43;;;;;;;8.55;4.45;;;;;;;;;;5111033;28;20069;-69
2021/09/11 07:01:08;;;;;;;6.40;3.63;;;;;;;;;;5070680;28;20851;-69
2021/09/11 07:03:34;;;;;;;7.07;3.72;;;;;;;;;;5069029;28;20029;-69
2021/09/11 07:06:04;;;;;;;6.03;3.53;;;;;;;;;;5069295;28;20021;-69
2021/09/11 07:08:31;;;;;;;7.32;3.83;;;;;;;;;;5070633;28;20052;-68
2021/09/11 07:10:57;;;;;;;7.30;3.58;;;;;;;;;;5070619;28;20049;-68
2021/09/11 07:15:18;;;;;;;6.72;3.00;;;;;;;;;;5111511;27;20512;-68
2021/09/11 07:18:55;;;;;;;5.57;3.65;;;;;;;;;;5111069;27;20875;-68
2021/09/11 07:21:21;;;;;;;4.45;2.35;;;;;;;;;;5111408;28;20031;-70
2021/09/11 07:23:59;;;;;;;5.65;2.92;;;;;;;;;;5132180;27;20528;-68
2021/09/11 07:26:25;;;;;;;6.00;2.83;;;;;;;;;;5130018;28;20023;-68
2021/09/11 07:29:18;;;;;;;5.80;3.00;;;;;;;;;;5111963;27;20419;-68
2021/09/11 07:31:44;;;;;;;5.38;2.67;;;;;;;;;;5126706;28;20106;-68
2021/09/11 07:34:10;;;;;;;7.03;4.28;;;;;;;;;;5111268;28;20422;-71
2021/09/11 07:36:37;;;;;;;9.50;3.80;;;;;;;;;;5111301;28;20030;-69
2021/09/11 07:39:03;;;;;;;9.10;4.28;;;;;;;;;;5110828;28;20078;-69
2021/09/11 07:41:45;;;;;;;6.90;3.58;;;;;;;;;;5111417;27;20832;-69
2021/09/11 07:45:25;;;;;;;6.00;3.08;;;;;;;;;;5111650;27;20521;-68
2021/09/11 07:47:51;;;;;;;8.88;3.50;;;;;;;;;;5110907;28;20034;-68
2021/09/11 07:50:19;;;;;;;9.45;3.90;;;;;;;;;;5111244;28;20023;-68
2021/09/11 07:52:45;;;;;;;6.63;3.50;;;;;;;;;;5109411;28;20197;-68
2021/09/11 07:55:11;;;;;;;9.13;3.88;;;;;;;;;;5111077;28;20032;-68
2021/09/11 07:57:37;;;;;;;6.72;3.75;;;;;;;;;;5110992;28;20024;-68
2021/09/11 08:00:05;;;;;;;5.78;3.38;;;;;;;;;;5110705;28;20027;-69
2021/09/11 08:02:31;;;;;;;6.35;2.88;;;;;;;;;;5109720;28;20028;-69
2021/09/11 08:05:09;;;;;;;6.45;3.17;;;;;;;;;;5112084;27;20514;-69
2021/09/11 08:07:35;;;;;;;6.45;2.70;;;;;;;;;;5110907;28;20028;-69
2021/09/11 08:11:50;;;;;;;9.80;3.35;;;;;;;;;;5111880;27;20393;-69
2021/09/11 08:14:16;;;;;;;7.43;3.33;;;;;;;;;;5110959;28;20387;-69
2021/09/11 08:17:32;;;;;;;6.25;3.38;;;;;;;;;;5111906;27;20446;-68
2021/09/11 08:21:11;;;;;;;5.75;3.10;;;;;;;;;;5111132;27;20820;-70
2021/09/11 08:23:37;;;;;;;6.65;3.08;;;;;;;;;;5111120;28;20024;-69
2021/09/11 08:27:20;;;;;;;7.15;3.70;;;;;;;;;;5111758;27;20576;-68
2021/09/11 08:29:46;;;;;;;6.30;3.42;;;;;;;;;;5109683;28;20028;-69
2021/09/11 08:32:12;;;;;;;6.22;2.95;;;;;;;;;;5109949;28;20028;-68
2021/09/11 08:34:38;;;;;;;7.10;3.15;;;;;;;;;;5111285;28;20411;-68
2021/09/11 08:37:05;;;;;;;7.57;2.85;;;;;;;;;;5110790;28;20046;-68
2021/09/11 08:39:31;;;;;;;6.05;2.97;;;;;;;;;;5111130;28;20427;-68
2021/09/11 08:41:57;;;;;;;5.90;2.78;;;;;;;;;;5111132;28;20016;-68
2021/09/11 08:44:25;;;;;;;4.95;2.70;;;;;;;;;;5110869;28;20092;-69
2021/09/11 08:46:52;;;;;;;3.78;2.60;;;;;;;;;;5111190;28;20388;-69
2021/09/11 08:50:02;;;;;;;5.38;2.42;;;;;;;;;;5111332;27;20466;-69
2021/09/11 08:52:28;;;;;;;7.15;3.75;;;;;;;;;;5111285;28;20361;-68
2021/09/11 08:54:54;;;;;;;7.65;2.83;;;;;;;;;;5109919;28;20027;-69
2021/09/11 08:57:23;;;;;;;4.53;2.50;;;;;;;;;;5111075;28;20020;-68
2021/09/11 09:03:42;;;;;;;5.95;2.75;;;;;;;;;;5111147;27;20517;-68
2021/09/11 09:06:10;;;;;;;5.40;2.70;;;;;;;;;;5110112;28;20399;-68
2021/09/11 09:10:48;;;;;;;8.20;3.85;;;;;;;;;;5111575;27;20400;-70
2021/09/11 09:13:14;;;;;;;5.40;2.75;;;;;;;;;;5111238;28;20023;-69
2021/09/11 09:15:41;;;;;;;5.38;3.00;;;;;;;;;;5111245;28;20043;-67
2021/09/11 09:18:07;;;;;;;6.18;3.33;;;;;;;;;;5111118;28;20495;-68
2021/09/11 09:20:33;;;;;;;6.07;2.80;;;;;;;;;;5109904;28;20024;-69
2021/09/11 09:22:59;;;;;;;5.22;2.70;;;;;;;;;;5111259;28;20028;-69
2021/09/11 09:25:29;;;;;;;4.38;2.50;;;;;;;;;;5109422;28;20059;-69
2021/09/11 09:27:57;;;;;;;5.45;3.03;;;;;;;;;;5111002;28;20552;-69
2021/09/11 09:30:34;;;;;;;4.53;2.30;;;;;;;;;;5110868;28;20040;-69
2021/09/11 09:33:00;;;;;;;4.00;2.17;;;;;;;;;;5110641;28;20020;-69
2021/09/11 09:35:26;;;;;;;7.50;3.05;;;;;;;;;;5110966;28;20081;-69
2021/09/11 09:38:00;;;;;;;4.25;2.28;;;;;;;;;;5111105;28;20480;-70
2021/09/11 09:40:43;;;;;;;4.18;2.20;;;;;;;;;;5109216;28;20059;-71
2021/09/11 09:43:10;;;;;;;6.05;3.05;;;;;;;;;;5110767;28;20099;-69
2021/09/11 09:45:37;;;;;;;6.25;2.80;;;;;;;;;;5110266;28;20020;-69
2021/09/11 09:48:09;;;;;;;7.40;3.08;;;;;;;;;;5110237;28;20440;-69
2021/09/11 09:50:38;;;;;;;5.55;2.70;;;;;;;;;;5109286;28;20035;-69
2021/09/11 09:53:04;;;;;;;9.20;3.38;;;;;;;;;;5110286;28;20091;-69
2021/09/11 09:55:31;;;;;;;7.15;2.90;;;;;;;;;;5110442;28;20112;-69
2021/09/11 09:57:57;;;;;;;11.07;2.55;;;;;;;;;;5110497;28;20472;-69
2021/09/11 10:00:24;;;;;;;4.50;2.25;;;;;;;;;;5110222;28;20028;-69
2021/09/11 10:02:50;;;;;;;7.60;2.88;;;;;;;;;;5110470;28;20028;-68
2021/09/11 10:05:19;;;;;;;6.85;2.80;;;;;;;;;;5110287;28;20039;-70
2021/09/11 10:07:54;;;;;;;4.22;2.30;;;;;;;;;;5109831;28;20020;-69
2021/09/11 10:10:27;;;;;;;3.60;2.05;;;;;;;;;;5109956;28;20126;-69
2021/09/11 10:13:03;;;;;;;5.18;2.30;;;;;;;;;;5110294;28;20384;-68
2021/09/11 10:15:34;;;;;;;4.18;1.92;;;;;;;;;;5109710;28;20028;-68
2021/09/11 10:18:00;;;;;;;3.50;2.03;;;;;;;;;;5110285;28;20016;-68
2021/09/11 10:20:27;;;;;;;8.00;2.30;;;;;;;;;;5105928;28;20024;-68
2021/09/11 10:23:03;;;;;;;4.65;2.08;;;;;;;;;;5096394;28;20496;-69
2021/09/11 10:25:39;;;;;;;5.93;2.28;;;;;;;;;;5096436;28;20032;-69
2021/09/11 10:28:16;;;;;;;4.60;2.00;;;;;;;;;;5095786;28;20027;-69
2021/09/11 10:31:01;;;;;;;4.70;1.95;;;;;;;;;;5094859;28;20052;-68
2021/09/11 10:33:46;;;;;;;4.00;2.08;;;;;;;;;;5096347;28;20073;-69
2021/09/11 10:36:18;;;;;;;7.05;2.33;;;;;;;;;;5095809;28;20016;-68
2021/09/11 10:38:44;;;;;;;4.10;2.28;;;;;;;;;;5094852;28;20024;-68
2021/09/11 10:41:11;;;;;;;3.83;2.20;;;;;;;;;;5096374;28;20028;-68
2021/09/11 10:43:39;;;;;;;4.32;2.45;;;;;;;;;;5095630;28;20469;-68
2021/09/11 10:46:07;;;;;;;5.28;2.35;;;;;;;;;;5095872;28;20058;-68
2021/09/11 10:48:44;;;;;;;5.20;2.42;;;;;;;;;;5095575;28;20016;-69
2021/09/11 10:51:17;;;;;;;4.25;1.70;;;;;;;;;;5096334;28;20028;-68
2021/09/11 10:53:58;;;;;;;2.30;1.63;;;;;;;;;;5096069;28;20012;-68
2021/09/11 10:56:25;;;;;;;3.38;1.65;;;;;;;;;;5095467;28;20020;-68
2021/09/11 10:59:10;;;;;;;5.15;1.90;;;;;;;;;;5094277;28;20523;-68
2021/09/11 11:01:58;;;;;;;4.28;2.00;;;;;;;;;;5094350;28;20114;-68
2021/09/11 11:04:24;;;;;;;4.38;1.63;;;;;;;;;;5095236;28;20016;-68
2021/09/11 11:06:54;;;;;;;3.60;2.03;;;;;;;;;;5095655;28;20024;-68
2021/09/11 11:09:21;;;;;;;3.72;2.30;;;;;;;;;;5095261;28;20403;-70
2021/09/11 11:11:48;;;;;;;2.83;1.88;;;;;;;;;;5095169;28;20028;-69
2021/09/11 11:14:15;;;;;;;4.25;1.63;;;;;;;;;;5096022;28;20095;-69
2021/09/11 11:16:48;;;;;;;3.50;1.40;;;;;;;;;;5094931;28;20491;-68
2021/09/11 11:19:25;;;;;;;2.78;1.60;;;;;;;;;;5095352;28;20023;-69
2021/09/11 11:22:10;;;;;;;2.78;1.75;;;;;;;;;;5093930;28;20118;-69
2021/09/11 11:24:41;;;;;;;3.38;1.48;;;;;;;;;;5093654;28;20027;-68
2021/09/11 11:27:12;;;;;;;2.25;1.30;;;;;;;;;;5095201;28;20028;-69
2021/09/11 11:29:39;;;;;;;2.95;1.80;;;;;;;;;;5095347;28;20096;-69
2021/09/11 11:32:06;;;;;;;3.00;1.25;;;;;;;;;;5093892;28;20020;-69
2021/09/11 11:34:33;;;;;;;3.58;1.50;;;;;;;;;;5093436;28;20025;-69
2021/09/11 11:37:03;;;;;;;2.67;1.60;;;;;;;;;;5095088;28;20388;-70
2021/09/11 11:39:33;;;;;;;2.45;1.35;;;;;;;;;;5094540;28;20095;-71
2021/09/11 11:42:03;;;;;;;2.20;1.27;;;;;;;;;;5095152;28;20016;-70
2021/09/11 11:44:30;;;;;;;4.03;2.10;;;;;;;;;;5095123;28;20020;-68
2021/09/11 11:47:09;;;;;;;4.15;1.80;;;;;;;;;;5093155;28;20020;-67
2021/09/11 11:49:39;;;;;;;3.92;1.95;;;;;;;;;;5094686;28;20039;-68
2021/09/11 11:52:09;;;;;;;4.07;2.03;;;;;;;;;;5094444;28;20024;-68
2021/09/11 11:54:36;;;;;;;3.78;1.67;;;;;;;;;;5093368;28;20027;-69
2021/09/11 11:57:07;;;;;;;4.80;2.88;;;;;;;;;;5094855;28;20020;-69
2021/09/11 11:59:33;;;;;;;3.78;1.65;;;;;;;;;;5094195;28;20031;-68
2021/09/11 12:01:59;;;;;;;4.28;1.92;;;;;;;;;;5094538;28;20028;-68
2021/09/11 12:04:25;;;;;;;3.17;1.77;;;;;;;;;;5094376;28;20099;-69
2021/09/11 12:06:55;;;;;;;2.67;1.30;;;;;;;;;;5092715;28;20036;-68
2021/09/11 12:09:21;;;;;;;2.47;1.60;;;;;;;;;;5094346;28;20067;-68
2021/09/11 12:11:48;;;;;;;2.75;1.30;;;;;;;;;;5094378;28;20028;-69
2021/09/11 12:14:17;;;;;;;2.95;1.52;;;;;;;;;;5094142;28;20024;-68
2021/09/11 12:16:44;;;;;;;3.13;1.80;;;;;;;;;;5094349;28;20016;-67
2021/09/11 12:19:18;;;;;;;3.72;1.88;;;;;;;;;;5095346;28;20357;-68
2021/09/11 12:21:44;;;;;;;4.00;1.73;;;;;;;;;;5093898;28;20020;-69
2021/09/11 12:24:20;;;;;;;2.35;1.65;;;;;;;;;;5094132;28;20549;-69
2021/09/11 12:26:46;;;;;;;3.22;1.50;;;;;;;;;;5094339;28;20427;-67
2021/09/11 12:29:15;;;;;;;3.60;1.70;;;;;;;;;;5093593;28;20016;-70
2021/09/11 12:31:51;;;;;;;2.85;1.60;;;;;;;;;;5092688;28;20028;-69
2021/09/11 12:34:18;;;;;;;3.33;1.70;;;;;;;;;;5093766;28;20484;-69
2021/09/11 12:36:48;;;;;;;2.97;1.48;;;;;;;;;;5093890;28;20401;-68
2021/09/11 12:39:33;;;;;;;3.05;1.90;;;;;;;;;;5092621;28;20016;-69
2021/09/11 12:42:10;;;;;;;2.47;1.60;;;;;;;;;;5093778;28;20029;-69
2021/09/11 12:44:37;;;;;;;3.80;1.92;;;;;;;;;;5093975;28;20024;-69
2021/09/11 12:47:05;;;;;;;2.45;1.48;;;;;;;;;;5093773;28;20024;-69
2021/09/11 12:49:32;;;;;;;3.05;1.48;;;;;;;;;;5093424;28;20024;-69
2021/09/11 12:51:59;;;;;;;5.22;1.92;;;;;;;;;;5093747;28;20024;-69
2021/09/11 12:54:25;;;;;;;4.45;2.05;;;;;;;;;;5093726;28;20028;-69
2021/09/11 12:56:52;;;;;;;3.85;2.30;;;;;;;;;;5093309;28;20020;-69
2021/09/11 12:59:18;;;;;;;2.42;1.50;;;;;;;;;;5093544;28;20024;-69
2021/09/11 13:01:45;;;;;;;4.70;2.15;;;;;;;;;;5092358;28;20388;-68
2021/09/11 13:04:13;;;;;;;2.25;1.52;;;;;;;;;;5093141;28;20048;-69
2021/09/11 13:06:39;;;;;;;5.00;1.48;;;;;;;;;;5093553;28;20027;-68
2021/09/11 13:09:07;;;;;;;4.10;1.85;;;;;;;;;;5093501;28;20043;-68
2021/09/11 13:11:33;;;;;;;3.67;1.13;;;;;;;;;;5093083;28;20098;-68
2021/09/11 13:13:59;;;;;;;2.13;1.20;;;;;;;;;;5092144;28;20485;-68
2021/09/11 13:16:26;;;;;;;2.10;1.30;;;;;;;;;;5093188;28;20093;-69
2021/09/11 13:18:53;;;;;;;1.83;1.02;;;;;;;;;;5092178;28;20024;-68
2021/09/11 13:21:20;;;;;;;2.45;1.38;;;;;;;;;;5093404;28;20032;-69
2021/09/11 13:23:49;;;;;;;3.25;1.48;;;;;;;;;;5091669;28;20049;-67
2021/09/11 13:26:17;;;;;;;8.13;1.77;;;;;;;;;;5093377;28;20025;-68
2021/09/11 13:28:44;;;;;;;3.10;1.40;;;;;;;;;;5093314;28;20022;-68
2021/09/11 13:31:12;;;;;;;2.42;1.30;;;;;;;;;;5093132;28;20032;-69
2021/09/11 13:33:38;;;;;;;4.13;1.63;;;;;;;;;;5093546;28;20025;-69
2021/09/11 13:36:05;;;;;;;2.42;1.30;;;;;;;;;;5093320;28;20027;-69
2021/09/11 13:38:32;;;;;;;4.85;1.60;;;;;;;;;;5093255;28;20051;-69
2021/09/11 13:40:58;;;;;;;3.35;1.65;;;;;;;;;;5093349;28;20417;-68
2021/09/11 13:43:25;;;;;;;3.03;1.50;;;;;;;;;;5093247;28;20508;-69
2021/09/11 13:45:51;;;;;;;2.95;1.40;;;;;;;;;;5092931;28;20024;-69
2021/09/11 13:48:18;;;;;;;3.75;1.77;;;;;;;;;;5091893;28;20032;-67
2021/09/11 13:50:44;;;;;;;2.22;1.60;;;;;;;;;;5093346;28;20084;-69
2021/09/11 13:53:10;;;;;;;3.97;1.98;;;;;;;;;;5092657;28;20023;-69
2021/09/11 13:55:36;;;;;;;5.57;1.95;;;;;;;;;;5093735;28;20016;-69
2021/09/11 13:58:03;;;;;;;3.55;1.60;;;;;;;;;;5097221;28;20042;-69
2021/09/11 14:00:29;;;;;;;5.15;2.25;;;;;;;;;;5095198;28;20456;-69
2021/09/11 14:02:57;;;;;;;2.67;1.48;;;;;;;;;;5096871;28;20025;-69
2021/09/11 14:05:24;;;;;;;2.70;1.60;;;;;;;;;;5096792;28;20020;-69
2021/09/11 14:07:51;;;;;;;6.25;2.55;;;;;;;;;;5097194;28;20020;-69
2021/09/11 14:10:17;;;;;;;3.90;1.90;;;;;;;;;;5096552;28;20119;-69
2021/09/11 14:12:44;;;;;;;3.72;1.20;;;;;;;;;;5096242;28;20024;-68
2021/09/11 14:15:11;;;;;;;3.47;1.20;;;;;;;;;;5096908;28;20512;-68
2021/09/11 14:17:37;;;;;;;3.47;1.60;;;;;;;;;;5097049;28;20133;-68
2021/09/11 14:20:04;;;;;;;3.53;1.50;;;;;;;;;;5094883;28;20073;-69
2021/09/11 14:22:30;;;;;;;2.03;1.13;;;;;;;;;;5078444;28;20504;-69
2021/09/11 14:24:56;;;;;;;3.80;1.58;;;;;;;;;;5095104;28;20384;-69
2021/09/11 14:27:22;;;;;;;2.95;1.10;;;;;;;;;;5096011;28;20036;-69
2021/09/11 14:29:49;;;;;;;2.97;1.52;;;;;;;;;;5096329;28;20396;-68
2021/09/11 14:32:17;;;;;;;2.65;1.50;;;;;;;;;;5096353;28;20475;-69
2021/09/11 14:34:43;;;;;;;3.67;1.70;;;;;;;;;;5095858;28;20042;-70
2021/09/11 14:37:09;;;;;;;3.90;1.77;;;;;;;;;;5096322;28;20028;-70
2021/09/11 14:39:35;;;;;;;3.80;1.40;;;;;;;;;;5096191;28;20028;-69
2021/09/11 14:42:02;;;;;;;3.22;1.20;;;;;;;;;;5095785;28;20016;-71
2021/09/11 14:44:29;;;;;;;4.13;1.98;;;;;;;;;;5096004;28;20495;-69
2021/09/11 14:46:55;;;;;;;3.92;1.50;;;;;;;;;;5095962;28;20020;-70
2021/09/11 14:49:21;;;;;;;3.35;1.30;;;;;;;;;;5095620;28;20077;-70
2021/09/11 14:51:48;;;;;;;4.80;1.52;;;;;;;;;;5096128;28;20034;-70
2021/09/11 14:54:14;;;;;;;2.03;1.17;;;;;;;;;;5095864;28;20020;-69
2021/09/11 14:56:40;;;;;;;3.42;1.75;;;;;;;;;;5094168;28;20024;-69
2021/09/11 14:59:06;;;;;;;3.90;1.90;;;;;;;;;;5095880;28;20084;-69
2021/09/11 15:01:33;;;;;;;4.22;2.40;;;;;;;;;;5095768;28;20491;-69
2021/09/11 15:03:59;;;;;;;2.67;1.52;;;;;;;;;;5095358;28;20039;-69
2021/09/11 15:06:26;;;;;;;3.10;1.42;;;;;;;;;;5095491;28;20043;-69
2021/09/11 15:08:52;;;;;;;3.08;1.27;;;;;;;;;;5095761;28;20122;-68
2021/09/11 15:11:18;;;;;;;3.70;1.30;;;;;;;;;;5095190;28;20043;-68
2021/09/11 15:13:44;;;;;;;2.58;1.10;;;;;;;;;;5095415;28;20099;-68
2021/09/11 15:16:11;;;;;;;1.70;1.00;;;;;;;;;;5093734;28;20020;-68
2021/09/11 15:18:38;;;;;;;3.15;1.25;;;;;;;;;;5095336;28;20484;-68
2021/09/11 15:21:04;;;;;;;3.15;1.35;;;;;;;;;;5095370;28;20032;-68
2021/09/11 15:23:30;;;;;;;2.58;1.25;;;;;;;;;;5094904;28;20488;-68
2021/09/11 15:25:56;;;;;;;9.43;6.20;;;;;;;;;;5095092;28;20028;-68
2021/09/11 15:28:23;;;;;;;8.27;3.38;;;;;;;;;;5095435;28;20028;-68
2021/09/11 15:30:50;;;;;;;5.55;2.17;;;;;;;;;;5094642;28;20043;-68
2021/09/11 15:33:16;;;;;;;3.72;1.90;;;;;;;;;;5095139;28;20023;-68
2021/09/11 15:35:43;;;;;;;7.65;3.53;;;;;;;;;;5095089;28;20050;-68
2021/09/11 15:38:11;;;;;;;2.17;1.10;;;;;;;;;;5093275;28;20055;-68
2021/09/11 15:40:37;;;;;;;1.75;1.15;;;;;;;;;;5095126;28;20024;-69
2021/09/11 15:43:04;;;;;;;1.75;0.98;;;;;;;;;;5094898;28;20023;-69
2021/09/11 15:45:30;;;;;;;3.17;1.30;;;;;;;;;;5093180;28;20158;-68
2021/09/11 15:47:57;;;;;;;2.38;1.33;;;;;;;;;;5093553;28;20472;-67
2021/09/11 15:50:23;;;;;;;3.22;1.80;;;;;;;;;;5094723;28;20040;-69
2021/09/11 15:52:49;;;;;;;3.20;1.40;;;;;;;;;;5094000;28;20039;-68
2021/09/11 15:55:16;;;;;;;1.30;0.93;;;;;;;;;;5094681;28;20475;-68
2021/09/11 15:57:43;;;;;;;6.13;1.90;;;;;;;;;;5094788;28;20027;-68
2021/09/11 16:00:10;;;;;;;6.03;1.50;;;;;;;;;;5094293;28;20035;-68
2021/09/11 16:02:36;;;;;;;3.20;1.20;;;;;;;;;;5094556;28;20498;-68
2021/09/11 16:05:03;;;;;;;4.47;1.85;;;;;;;;;;5094490;28;20446;-67
2021/09/11 16:07:29;;;;;;;2.75;1.67;;;;;;;;;;5094008;28;20056;-69
2021/09/11 16:09:57;;;;;;;3.83;1.50;;;;;;;;;;5094119;28;20047;-68
2021/09/11 16:12:24;;;;;;;3.55;1.52;;;;;;;;;;5092744;28;20016;-68
2021/09/11 16:14:50;;;;;;;3.90;2.03;;;;;;;;;;5094346;28;20052;-67
2021/09/11 16:17:16;;;;;;;13.43;4.07;;;;;;;;;;5094389;28;20024;-67
2021/09/11 16:19:42;;;;;;;8.05;3.20;;;;;;;;;;5093417;28;20045;-68
2021/09/11 16:22:09;;;;;;;16.75;4.68;;;;;;;;;;5092915;28;20437;-68
2021/09/11 16:24:35;;;;;;;10.13;5.30;;;;;;;;;;5094267;28;20073;-68
2021/09/11 16:27:02;;;;;;;11.68;5.38;;;;;;;;;;5093743;28;20498;-67
2021/09/11 16:29:28;;;;;;;11.95;4.85;;;;;;;;;;5092702;28;20028;-68
2021/09/11 16:31:57;;;;;;;8.07;4.15;;;;;;;;;;5094226;28;20476;-68
2021/09/11 16:34:23;;;;;;;9.75;5.15;;;;;;;;;;5092258;28;20481;-68
2021/09/11 16:36:49;;;;;;;8.93;4.50;;;;;;;;;;5093881;28;20077;-68
2021/09/11 16:39:15;;;;;;;12.35;4.60;;;;;;;;;;5093905;28;20035;-68
2021/09/11 16:41:42;;;;;;;7.55;3.05;;;;;;;;;;5092185;28;20472;-68
2021/09/11 16:44:08;;;;;;;7.60;4.68;;;;;;;;;;5092501;28;20024;-68
2021/09/11 16:46:34;;;;;;;9.90;5.60;;;;;;;;;;5094067;28;20345;-68
2021/09/11 16:49:01;;;;;;;12.25;6.28;;;;;;;;;;5093274;28;20361;-68